Harvest Peace — V7VE7 — position and weather

sailwx.info

Track history (hours):
 
Tides and Currents Weather Stations Pressure Air Temp Water Temp Dewpoint Dewpoint Depression Visibility Wind Speed Wind Dir Waves Ship Positions

Harvest Peace

Last reported at 2015-Aug-07 08:31 UTC. Time now 2015-Aug-28 09:35 UTC.
Position N 25°42' W 115°53'.
Warning: this ship's position is 21 days out of date.

Length 225 m; draft 6 m.

Type: Cargo ship. MMSI: 538004103.

Date/timePositionNaut miles runAvg speedWind from/ knotsBaromVisibWave heightAir tempDewpointWater temp
2015-Aug-07 08:31N 25°42' W 115°53'1313.0
2015-Aug-07 07:28N 25°50' W 116°04'1213.2
2015-Aug-07 06:33N 25°58' W 116°15'1313.2
2015-Aug-07 05:33N 26°07' W 116°25'1313.3
2015-Aug-07 04:33N 26°16' W 116°36'1713.6
2015-Aug-07 03:18N 26°27' W 116°51'2513.4
2015-Aug-07 01:26N 26°43' W 117°12'1313.1
2015-Aug-07 00:27N 26°51' W 117°23'1213.3
2015-Aug-06 23:33N 26°59' W 117°34'1313.2
2015-Aug-06 22:33N 27°07' W 117°45'1313.2
2015-Aug-06 21:32N 27°16' W 117°56'1313.0
2015-Aug-06 20:33N 27°25' W 118°07'1313.1
2015-Aug-06 19:33N 27°33' W 118°18'3113.3
2015-Aug-06 17:16N 27°53' W 118°45'1013.1
2015-Aug-06 16:32N 27°59' W 118°53'1713.4
2015-Aug-06 15:17N 28°10' W 119°07'1013.4
2015-Aug-06 14:31N 28°17' W 119°16'1313.3
2015-Aug-06 13:33N 28°25' W 119°27'1312.7
2015-Aug-06 12:33N 28°34' W 119°38'1312.6
2015-Aug-06 11:33N 28°42' W 119°49'1312.6
2015-Aug-06 10:33N 28°50' W 120°00'1312.7
2015-Aug-06 09:33N 28°58' W 120°11'1312.7
2015-Aug-06 08:33N 29°06' W 120°23'1312.8
2015-Aug-06 07:33N 29°14' W 120°34'1313.0
2015-Aug-06 06:33N 29°22' W 120°46'1313.0
2015-Aug-06 05:33N 29°30' W 120°58'1313.3
2015-Aug-06 04:33N 29°38' W 121°10'1313.4
2015-Aug-06 03:33N 29°46' W 121°22'1313.3
2015-Aug-06 02:34N 29°54' W 121°34'1313.5
2015-Aug-06 01:34N 30°02' W 121°47'1413.6
2015-Aug-06 00:33N 30°11' W 121°59'1413.4
2015-Aug-05 23:29N 30°20' W 122°12'1213.2
2015-Aug-05 22:33N 30°28' W 122°23'1513.1
2015-Aug-05 21:23N 30°37' W 122°37'1613.4
2015-Aug-05 20:11N 30°47' W 122°51'3713.1
2015-Aug-05 17:23N 31°10' W 123°25'  
Track history (hours):
 
Tides and Currents Weather Stations Pressure Air Temp Water Temp Dewpoint Dewpoint Depression Visibility Wind Speed Wind Dir Waves Ship Positions

Harvest Peace

Last reported at 2015-Aug-07 08:31 UTC. Time now 2015-Aug-28 09:35 UTC.
Position N 25°42' W 115°53'.
Warning: this ship's position is 21 days out of date.

Length 225 m; draft 6 m.

Type: Cargo ship. MMSI: 538004103.

Date/timePositionNaut miles runAvg speedWind from/ knotsBaromVisibWave heightAir tempDewpointWater temp
2015-Aug-07 08:31N 25°42' W 115°53'1313.0
2015-Aug-07 07:28N 25°50' W 116°04'1213.2
2015-Aug-07 06:33N 25°58' W 116°15'1313.2
2015-Aug-07 05:33N 26°07' W 116°25'1313.3
2015-Aug-07 04:33N 26°16' W 116°36'1713.6
2015-Aug-07 03:18N 26°27' W 116°51'2513.4
2015-Aug-07 01:26N 26°43' W 117°12'1313.1
2015-Aug-07 00:27N 26°51' W 117°23'1213.3
2015-Aug-06 23:33N 26°59' W 117°34'1313.2
2015-Aug-06 22:33N 27°07' W 117°45'1313.2
2015-Aug-06 21:32N 27°16' W 117°56'1313.0
2015-Aug-06 20:33N 27°25' W 118°07'1313.1
2015-Aug-06 19:33N 27°33' W 118°18'3113.3
2015-Aug-06 17:16N 27°53' W 118°45'1013.1
2015-Aug-06 16:32N 27°59' W 118°53'1713.4
2015-Aug-06 15:17N 28°10' W 119°07'1013.4
2015-Aug-06 14:31N 28°17' W 119°16'1313.3
2015-Aug-06 13:33N 28°25' W 119°27'1312.7
2015-Aug-06 12:33N 28°34' W 119°38'1312.6
2015-Aug-06 11:33N 28°42' W 119°49'1312.6
2015-Aug-06 10:33N 28°50' W 120°00'1312.7
2015-Aug-06 09:33N 28°58' W 120°11'1312.7
2015-Aug-06 08:33N 29°06' W 120°23'1312.8
2015-Aug-06 07:33N 29°14' W 120°34'1313.0
2015-Aug-06 06:33N 29°22' W 120°46'1313.0
2015-Aug-06 05:33N 29°30' W 120°58'1313.3
2015-Aug-06 04:33N 29°38' W 121°10'1313.4
2015-Aug-06 03:33N 29°46' W 121°22'1313.3
2015-Aug-06 02:34N 29°54' W 121°34'1313.5
2015-Aug-06 01:34N 30°02' W 121°47'1413.6
2015-Aug-06 00:33N 30°11' W 121°59'1413.4
2015-Aug-05 23:29N 30°20' W 122°12'1213.2
2015-Aug-05 22:33N 30°28' W 122°23'1513.1
2015-Aug-05 21:23N 30°37' W 122°37'1613.4
2015-Aug-05 20:11N 30°47' W 122°51'3713.1
2015-Aug-05 17:23N 31°10' W 123°25'  

Dump ship's entire track history